Historyczne dane pomiarowe

Dodano dane terminowe – wersja testowa.

Dane z okresu 1951-2019

Wersja bazy: 1.34 [2019-03-16, lista zmian], aktualizacja planowana na 2019-04-15

Dane meteo z obszaru Polski uzyskane na podstawie danych udostępnionych przez Instytut Meteorologii i Gospodarki Wodnej – Państwowy Instytut Badawczy.

 

Wybierz Datę:    

       

TemperaturaWilgotnośćWiatrCiśnienieOpadyŚniegCzas trwania zjawisk
 Stacja t tx tn tng RH VA  wxwx mslp ppp RRR   cm mm wxwxwxwxwxwxwx
1983-08-14 11.5 15.1 9.3 6.4 80.8- 6.0 1.0---- 0.0------------
1983-08-13 12.8 18.1 11.8 8.2 86.3- 7.7 0.0---- 7.8------------
1983-08-12 17.0 24.3 12.6 11.2 82.5- 3.7 1.0---- 2.7------------
1983-08-11 16.1 19.9 13.3 11.3 94.3- 8.0 0.7---- 7.0------------
1983-08-10 15.4 22.7 10.2 8.3 86.5- 7.0 0.7---- 3.3------------
1983-08-09 16.2 23.9 10.8 7.5 83.5- 6.3 1.0---- 0.0------------
1983-08-08 15.8 21.4 11.5 8.2 89.3- 7.3 0.7---- 4.7------------
1983-08-07 13.7 17.7 11.7 10.4 94.0- 8.0 0.0---- 13.7------------
1983-08-06 14.5 18.7 9.4 6.9 78.5- 7.0 0.7---- 2.3------------
1983-08-05 11.7 15.5 8.9 7.6 85.8- 8.0 0.7---- 0.0------------
1983-08-04 12.8 20.5 10.8 9.2 90.5- 8.0 0.7---- 7.1------------
1983-08-03 18.2 25.4 11.9 13.2 84.3- 6.7 1.0---- 15.8------------
1983-08-02 18.4 29.1 10.1 5.9 82.5- 4.0 0.0---- 7.8------------
1983-08-01 16.5 26.9 6.4 1.8 74.8- 0.0 0.3---- 0.0------------
1983-07-31 15.2 22.8 8.5 4.5 76.3- 0.7 1.0---- 0.0------------
1983-07-30 16.0 21.2 10.8 6.3 82.5- 6.0 1.3---- 0.2------------
1983-07-29 16.1 23.7 10.0 6.5 77.8- 3.3 1.0---- 0.3------------
1983-07-28 19.2 27.2 12.9 9.5 75.5- 3.3 0.7---- 0.0------------
1983-07-27 19.4 28.2 10.9 7.0 73.5- 0.3 0.0---- 0.0------------
1983-07-26 19.3 24.7 9.8 5.7 65.8- 1.7 1.3---- 0.0------------
1983-07-25 15.5 19.0 12.2 9.3 67.5- 2.7 1.7---- 0.0------------
1983-07-24 16.0 21.6 10.2 6.1 80.0- 6.7 1.3---- 0.0------------
1983-07-23 15.6 20.6 11.8 9.0 80.5- 4.7 1.7---- 0.0------------
1983-07-22 11.6 14.2 5.9 2.1 71.8- 8.0 2.3---- 4.6------------
1983-07-21 11.3 15.3 7.3 4.1 74.3- 6.0 1.0---- 0.9------------
1983-07-20 18.0 25.8 13.6 10.1 78.5- 6.7 5.0---- 2.2------------
1983-07-19 20.9 30.8 11.7 8.0 74.3- 4.3 1.3---- 0.1------------
1983-07-18 19.5 29.0 12.3 8.8 73.3- 2.7 1.0---- 0.0------------
1983-07-17 18.3 26.2 11.8 9.2 77.5- 2.0 0.0---- 0.0------------
1983-07-16 17.2 26.5 9.3 6.5 75.0- 1.3 0.7---- 0.0------------
1983-07-15 18.0 23.5 14.2 12.9 76.5- 0.3 1.0---- 0.0------------
1983-07-14 15.8 18.5 13.2 11.8 93.8- 7.7 0.7---- 39.2------------
1983-07-13 14.8 18.3 11.5 8.8 97.0- 8.0 0.0---- 46.0------------
1983-07-12 16.2 22.3 12.5 9.3 87.5- 6.0 1.0---- 13.5------------
1983-07-11 16.9 23.9 10.8 7.1 76.5- 7.7 1.3---- 8.6------------
1983-07-10 18.6 26.2 10.7 6.7 73.8- 0.7 0.7---- 0.9------------
1983-07-09 16.5 25.3 6.7 5.5 75.5- 1.0 0.7---- 0.0------------
1983-07-08 16.8 25.0 7.9 3.7 65.0- 0.0 1.3---- 0.0------------
1983-07-07 18.2 26.4 9.6 6.1 74.3- 1.0 1.0---- 0.0------------
1983-07-06 18.6 26.8 10.4 7.4 72.3- 0.3 0.7---- 0.0------------
1983-07-05 16.8 25.2 8.8 4.9 77.0- 1.3 0.7---- 0.0------------
1983-07-04 15.9 23.6 8.8 6.0 74.3- 3.0 0.7---- 0.0------------
1983-07-03 17.5 21.6 12.4 10.0 73.3- 1.3 1.0---- 0.0------------
1983-07-02 17.5 23.1 14.0 12.3 85.5- 7.0 1.7---- 3.0------------
1983-07-01 16.3 24.8 8.8 5.2 77.3- 4.3 0.7---- 1.2------------
1983-06-30 13.1 23.3 3.4 0.5 75.5- 1.7 0.7---- 0.0------------
1983-06-29 13.9 17.3 10.4 8.8 67.3- 5.0 1.3---- 0.0------------
1983-06-28 14.7 19.7 12.4 9.3 92.5- 8.0 0.7---- 22.3------------
1983-06-27 17.0 25.0 11.4 8.6 84.8- 7.7 1.0---- 2.2------------
1983-06-26 14.7 21.8 9.1 5.4 93.0- 7.3 0.0---- 5.2------------
1983-06-25 17.0 25.6 7.9 4.4 69.3- 0.3 0.7---- 1.3------------
1983-06-24 14.4 24.5 5.0 1.4 65.8- 0.3 1.0---- 0.0------------
1983-06-23 11.9 21.5 3.1 1.2 69.0- 0.0 2.0---- 0.0------------
1983-06-22 14.1 20.4 9.4 6.4 64.5- 2.0 3.3---- 0.0------------
1983-06-21 17.8 23.7 12.9 10.0 73.8- 5.7 0.7---- 0.0------------
1983-06-20 16.5 19.0 13.3 11.0 92.0- 7.0 1.7---- 0.0------------
1983-06-19 13.8 18.3 10.5 8.8 92.3- 8.0 0.0---- 18.8------------
1983-06-18 10.9 12.8 8.8 7.0 89.8- 8.0 2.0---- 8.9------------
1983-06-17 10.2 12.6 8.9 7.1 85.8- 8.0 0.7---- 4.4------------
1983-06-16 10.1 14.9 8.3 8.2 90.3- 8.0 1.3---- 2.1------------
488.4 ms

 

Źródłem pochodzenia danych jest Instytut Meteorologii i Gospodarki Wodnej – Państwowy Instytut Badawczy. Dane Instytutu Meteorologii i Gospodarki Wodnej – Państwowego Instytutu Badawczego zostały przetworzone.

Dane źródłowe można odnaleźć na stronie https://dane.imgw.pl